Time;durP1;ratioP1;P1;durP2;ratioP2;P2;SDS_P1;SDS_P2;PMS_P1;PMS_P2;Temp;Humidity;BMP_temperature;BMP_pressure;BME280_temperature;BME280_humidity;BME280_pressure;Samples;Min_cycle;Max_cycle;Signal;HPM_P1;HPM_P2
2023/05/21 00:01:15;;;;;;;3.67;0.80;;;21.20;1.00;;;;;;5050066;28;20051;-46
2023/05/21 00:03:44;;;;;;;4.05;1.38;;;21.20;1.00;;;;;;5050363;28;20045;-46
2023/05/21 00:06:15;;;;;;;1.70;0.98;;;21.20;1.00;;;;;;5051407;28;20167;-50
2023/05/21 00:08:42;;;;;;;2.88;1.63;;;21.20;1.00;;;;;;5051221;28;20125;-47
2023/05/21 00:11:08;;;;;;;2.67;1.10;;;21.10;1.00;;;;;;5051312;28;20056;-48
2023/05/21 00:13:35;;;;;;;2.67;1.63;;;21.10;1.00;;;;;;5051515;28;20045;-49
2023/05/21 00:16:02;;;;;;;4.45;0.88;;;21.20;1.00;;;;;;5051376;28;20551;-50
2023/05/21 00:18:31;;;;;;;3.10;1.08;;;21.10;1.00;;;;;;5051757;28;20427;-47
2023/05/21 00:20:58;;;;;;;1.65;0.82;;;21.10;1.00;;;;;;5055488;28;20044;-49
2023/05/21 00:23:25;;;;;;;3.53;0.90;;;21.10;1.00;;;;;;5051235;28;20037;-49
2023/05/21 00:25:52;;;;;;;2.30;1.00;;;21.10;1.00;;;;;;5051270;28;20048;-47
2023/05/21 00:28:19;;;;;;;2.90;1.00;;;21.10;1.00;;;;;;5051218;28;20116;-46
2023/05/21 00:30:46;;;;;;;3.15;0.65;;;21.10;1.00;;;;;;5049975;28;20041;-50
2023/05/21 00:33:13;;;;;;;4.60;0.90;;;21.10;1.00;;;;;;5051197;28;20057;-47
2023/05/21 00:35:40;;;;;;;2.70;1.33;;;21.10;1.00;;;;;;5050937;28;20040;-48
2023/05/21 00:38:07;;;;;;;2.55;0.70;;;21.10;1.00;;;;;;5049595;28;20052;-50
2023/05/21 00:40:35;;;;;;;4.22;0.93;;;21.10;1.00;;;;;;5051120;28;20048;-48
2023/05/21 00:43:02;;;;;;;8.48;2.00;;;21.10;1.00;;;;;;5049700;28;20045;-50
2023/05/21 00:45:29;;;;;;;3.47;0.90;;;21.00;1.00;;;;;;5051365;28;20507;-50
2023/05/21 00:47:56;;;;;;;2.35;1.30;;;21.00;1.00;;;;;;5053322;28;20064;-49
2023/05/21 00:50:23;;;;;;;4.30;0.80;;;21.00;1.00;;;;;;5053250;28;20037;-47
2023/05/21 00:52:50;;;;;;;3.08;0.95;;;21.00;1.00;;;;;;5053359;28;20106;-52
2023/05/21 00:55:17;;;;;;;2.80;0.85;;;21.00;1.00;;;;;;5053243;28;20044;-48
2023/05/21 00:57:44;;;;;;;3.85;1.23;;;21.00;1.00;;;;;;5054478;28;20044;-48
2023/05/21 01:00:13;;;;;;;2.53;1.00;;;21.00;1.00;;;;;;5053263;28;20389;-48
2023/05/21 01:02:40;;;;;;;2.65;1.05;;;21.00;1.00;;;;;;5054368;28;20041;-52
2023/05/21 01:05:09;;;;;;;1.30;0.90;;;21.00;1.00;;;;;;5054223;28;20496;-47
2023/05/21 01:07:40;;;;;;;2.88;0.80;;;21.00;1.00;;;;;;5069714;28;20037;-60
2023/05/21 01:10:09;;;;;;;3.80;1.40;;;21.00;1.00;;;;;;5054655;28;20059;-47
2023/05/21 01:12:38;;;;;;;5.03;1.27;;;21.00;1.00;;;;;;5054537;28;20064;-46
2023/05/21 01:15:06;;;;;;;3.35;1.08;;;21.00;1.00;;;;;;5054135;28;20116;-48
2023/05/21 01:17:33;;;;;;;3.72;0.93;;;20.90;1.00;;;;;;5052943;28;20044;-46
2023/05/21 01:20:00;;;;;;;4.65;0.95;;;20.90;1.00;;;;;;5053049;28;20106;-47
2023/05/21 01:22:31;;;;;;;2.10;0.90;;;20.90;1.00;;;;;;5058703;28;20041;-49
2023/05/21 01:25:01;;;;;;;3.67;1.33;;;20.90;1.00;;;;;;5052681;28;20075;-48
2023/05/21 01:27:28;;;;;;;1.52;0.60;;;20.90;1.00;;;;;;5052672;28;20060;-48
2023/05/21 01:29:55;;;;;;;4.32;0.90;;;20.90;1.00;;;;;;5052865;28;20052;-46
2023/05/21 01:32:39;;;;;;;2.72;1.23;;;20.90;1.00;;;;;;5045698;28;20106;-46
2023/05/21 01:35:08;;;;;;;1.80;0.77;;;20.90;1.00;;;;;;5052468;28;20076;-48
2023/05/21 01:37:54;;;;;;;2.08;0.77;;;20.90;1.00;;;;;;5053627;28;20124;-46
2023/05/21 01:40:24;;;;;;;2.42;1.20;;;20.90;1.00;;;;;;5053516;28;20150;-46
2023/05/21 01:42:52;;;;;;;1.67;0.80;;;20.90;1.00;;;;;;5052292;28;20131;-46
2023/05/21 01:45:21;;;;;;;2.85;1.02;;;20.90;1.00;;;;;;5052249;28;20063;-46
2023/05/21 01:47:50;;;;;;;3.33;1.15;;;20.80;1.00;;;;;;5053337;28;20041;-46
2023/05/21 01:50:18;;;;;;;1.92;0.80;;;20.80;1.00;;;;;;5052353;28;20481;-46
2023/05/21 01:52:50;;;;;;;4.32;2.15;;;20.90;1.00;;;;;;5052304;28;20094;-46
2023/05/21 01:55:18;;;;;;;2.05;1.08;;;20.90;1.00;;;;;;5052013;28;20451;-47
2023/05/21 01:57:45;;;;;;;4.70;1.42;;;20.80;1.00;;;;;;5051962;28;20081;-46
2023/05/21 02:00:13;;;;;;;2.88;0.82;;;20.80;1.00;;;;;;5052074;28;20051;-46
2023/05/21 02:02:42;;;;;;;3.00;1.27;;;20.80;1.00;;;;;;5053310;28;20103;-46
2023/05/21 02:05:10;;;;;;;4.22;0.60;;;20.80;1.00;;;;;;5051599;28;20120;-46
2023/05/21 02:07:37;;;;;;;2.83;0.82;;;20.80;1.00;;;;;;5053102;28;20037;-46
2023/05/21 02:10:05;;;;;;;3.65;1.25;;;20.80;1.00;;;;;;5053150;28;20036;-46
2023/05/21 02:12:32;;;;;;;2.47;1.58;;;20.80;1.00;;;;;;5051582;28;20059;-46
2023/05/21 02:14:59;;;;;;;2.28;0.90;;;20.80;1.00;;;;;;5051501;28;20041;-47
2023/05/21 02:17:29;;;;;;;2.65;1.00;;;20.80;1.00;;;;;;5051664;28;20143;-47
2023/05/21 02:19:56;;;;;;;3.38;0.88;;;20.80;1.00;;;;;;5051700;28;20509;-46
2023/05/21 02:22:23;;;;;;;4.10;1.20;;;20.80;1.00;;;;;;5056621;28;20633;-46
2023/05/21 02:24:50;;;;;;;5.53;0.82;;;20.80;1.00;;;;;;5051490;28;20102;-46
2023/05/21 02:27:17;;;;;;;3.65;0.80;;;20.80;1.00;;;;;;5051372;28;20069;-46
2023/05/21 02:29:43;;;;;;;2.90;1.10;;;20.80;1.00;;;;;;5052700;28;20033;-46
2023/05/21 02:32:10;;;;;;;2.95;1.10;;;20.80;1.00;;;;;;5051342;28;20417;-46
2023/05/21 02:34:41;;;;;;;2.22;1.02;;;20.80;1.00;;;;;;5052719;28;20037;-46
2023/05/21 02:37:08;;;;;;;1.88;0.70;;;20.70;1.00;;;;;;5051091;28;20084;-46
2023/05/21 02:39:35;;;;;;;3.25;0.98;;;20.70;1.00;;;;;;5052343;28;20094;-46
2023/05/21 02:42:02;;;;;;;4.68;1.33;;;20.70;1.00;;;;;;5052426;28;20124;-46
2023/05/21 02:44:29;;;;;;;2.03;0.85;;;20.70;1.00;;;;;;5051293;28;20476;-46
2023/05/21 02:46:56;;;;;;;3.47;1.35;;;20.70;1.00;;;;;;5052232;28;20119;-46
2023/05/21 02:49:23;;;;;;;2.53;0.98;;;20.70;1.00;;;;;;5051050;28;20037;-46
2023/05/21 02:51:49;;;;;;;4.97;1.48;;;20.70;1.00;;;;;;5050983;28;20064;-46
2023/05/21 02:54:16;;;;;;;2.80;1.52;;;20.70;1.00;;;;;;5050816;28;20110;-46
2023/05/21 02:56:43;;;;;;;3.75;0.95;;;20.70;1.00;;;;;;5050792;28;20056;-46
2023/05/21 02:59:10;;;;;;;4.47;1.27;;;20.70;1.00;;;;;;5050989;28;20477;-46
2023/05/21 03:01:40;;;;;;;2.95;1.13;;;20.70;1.00;;;;;;5050855;28;20505;-46
2023/05/21 03:04:07;;;;;;;3.88;0.90;;;20.70;1.00;;;;;;5050684;28;20500;-46
2023/05/21 03:06:34;;;;;;;4.18;0.93;;;20.70;1.00;;;;;;5050684;28;20136;-46
2023/05/21 03:09:04;;;;;;;3.00;0.98;;;20.70;1.00;;;;;;5050283;28;20044;-46
2023/05/21 03:11:31;;;;;;;3.90;0.75;;;20.70;1.00;;;;;;5050612;28;20132;-46
2023/05/21 03:13:58;;;;;;;3.50;0.73;;;20.70;1.00;;;;;;5050628;28;20507;-47
2023/05/21 03:16:24;;;;;;;1.67;1.20;;;20.60;1.00;;;;;;5050677;28;20048;-46
2023/05/21 03:18:51;;;;;;;2.50;0.98;;;20.70;1.00;;;;;;5051811;28;20033;-46
2023/05/21 03:21:21;;;;;;;3.00;1.58;;;20.60;1.00;;;;;;5056124;28;20499;-46
2023/05/21 03:23:48;;;;;;;6.03;0.73;;;20.60;1.00;;;;;;5051882;28;20041;-47
2023/05/21 03:26:15;;;;;;;3.10;1.48;;;20.60;1.00;;;;;;5050455;28;20068;-47
2023/05/21 03:28:42;;;;;;;2.42;1.55;;;20.60;1.00;;;;;;5050515;28;20458;-46
2023/05/21 03:31:09;;;;;;;2.90;1.15;;;20.60;1.00;;;;;;5050233;28;20048;-47
2023/05/21 03:33:47;;;;;;;2.20;0.50;;;20.60;1.00;;;;;;5050511;28;20492;-46
2023/05/21 03:36:23;;;;;;;3.90;1.00;;;20.60;1.00;;;;;;5050335;28;20048;-46
2023/05/21 03:38:51;;;;;;;4.20;1.02;;;20.60;1.00;;;;;;5051290;28;20045;-46
2023/05/21 03:41:18;;;;;;;3.20;0.95;;;20.60;1.00;;;;;;5050219;28;20246;-47
2023/05/21 03:43:49;;;;;;;6.07;1.33;;;20.60;1.00;;;;;;5050403;28;20079;-46
2023/05/21 03:46:17;;;;;;;4.25;1.10;;;20.60;1.00;;;;;;5050150;28;20055;-46
2023/05/21 03:49:04;;;;;;;3.35;1.85;;;20.60;1.00;;;;;;5050067;28;20408;-46
2023/05/21 03:51:33;;;;;;;2.97;0.90;;;20.60;1.00;;;;;;5050205;28;20056;-47
2023/05/21 03:54:00;;;;;;;2.30;1.33;;;20.60;1.00;;;;;;5049999;28;20053;-46
2023/05/21 03:56:27;;;;;;;7.07;1.35;;;20.60;1.00;;;;;;5050046;28;20140;-46
2023/05/21 03:58:54;;;;;;;2.13;0.80;;;20.50;1.00;;;;;;5050034;28;20037;-46
2023/05/21 04:01:21;;;;;;;3.60;0.98;;;20.60;1.00;;;;;;5051136;28;20220;-46
2023/05/21 04:03:50;;;;;;;3.65;0.93;;;20.50;1.00;;;;;;5048394;28;20052;-46
2023/05/21 04:06:20;;;;;;;2.90;1.20;;;20.50;1.00;;;;;;5048575;28;20037;-46
2023/05/21 04:08:47;;;;;;;1.98;0.70;;;20.50;1.00;;;;;;5049707;28;20041;-46
2023/05/21 04:11:14;;;;;;;3.92;1.15;;;20.50;1.00;;;;;;5049855;28;20041;-48
2023/05/21 04:13:41;;;;;;;4.80;1.13;;;20.50;1.00;;;;;;5049722;28;20053;-46
2023/05/21 04:16:08;;;;;;;1.85;0.98;;;20.50;1.00;;;;;;5049332;28;20041;-46
2023/05/21 04:18:35;;;;;;;3.28;1.55;;;20.50;1.00;;;;;;5049888;28;20523;-46
2023/05/21 04:21:02;;;;;;;3.13;0.93;;;20.50;1.00;;;;;;5058086;28;20033;-46
2023/05/21 04:23:29;;;;;;;3.40;1.13;;;20.50;1.00;;;;;;5070478;28;20049;-46
2023/05/21 04:25:57;;;;;;;3.47;1.27;;;20.50;1.00;;;;;;5053654;28;20041;-46
2023/05/21 04:28:27;;;;;;;2.05;0.85;;;20.50;1.00;;;;;;5053552;28;20041;-46
2023/05/21 04:30:55;;;;;;;2.85;0.98;;;20.50;1.00;;;;;;5053610;28;20477;-46
2023/05/21 04:33:23;;;;;;;5.20;0.65;;;20.50;1.00;;;;;;5053433;28;20044;-46
2023/05/21 04:35:50;;;;;;;2.97;1.17;;;20.50;1.00;;;;;;5053560;28;20053;-46
2023/05/21 04:38:18;;;;;;;2.08;0.90;;;20.50;1.00;;;;;;5053196;28;20424;-46
2023/05/21 04:40:52;;;;;;;4.45;1.30;;;20.50;1.00;;;;;;5053503;28;20071;-46
2023/05/21 04:43:24;;;;;;;2.40;0.88;;;20.50;1.00;;;;;;5053376;28;20463;-46
2023/05/21 04:45:57;;;;;;;2.80;0.90;;;20.40;1.00;;;;;;5054571;28;20119;-47
2023/05/21 04:48:25;;;;;;;3.55;1.10;;;20.40;1.00;;;;;;5053097;28;20137;-46
2023/05/21 04:50:54;;;;;;;2.20;1.00;;;20.40;1.00;;;;;;5053346;28;20076;-46
2023/05/21 04:53:22;;;;;;;2.55;0.88;;;20.40;1.00;;;;;;5054432;28;20036;-46
2023/05/21 04:55:49;;;;;;;2.30;1.00;;;20.40;1.00;;;;;;5054412;28;20041;-46
2023/05/21 04:58:17;;;;;;;3.83;1.17;;;20.40;1.00;;;;;;5053039;28;20037;-46
2023/05/21 05:00:45;;;;;;;4.70;1.00;;;20.40;1.00;;;;;;5050176;28;20068;-46
2023/05/21 05:03:13;;;;;;;2.38;0.90;;;20.40;1.00;;;;;;5057869;28;20032;-48
2023/05/21 05:05:42;;;;;;;3.13;1.00;;;20.40;1.00;;;;;;5052480;28;20037;-46
2023/05/21 05:08:09;;;;;;;2.85;1.02;;;20.40;1.00;;;;;;5052246;28;20441;-46
2023/05/21 05:10:37;;;;;;;3.58;0.93;;;20.40;1.00;;;;;;5080901;28;20052;-46
2023/05/21 05:13:04;;;;;;;4.97;0.90;;;20.40;1.00;;;;;;5049038;28;20121;-46
2023/05/21 05:15:31;;;;;;;2.03;1.10;;;20.40;1.00;;;;;;5058074;28;20037;-46
2023/05/21 05:17:58;;;;;;;2.22;0.88;;;20.40;1.00;;;;;;5052607;28;20095;-46
2023/05/21 05:20:25;;;;;;;2.75;1.10;;;20.40;1.00;;;;;;5054085;28;20131;-46
2023/05/21 05:22:51;;;;;;;2.58;0.90;;;20.40;1.00;;;;;;5050145;28;20087;-47
2023/05/21 05:25:18;;;;;;;3.72;1.13;;;20.40;1.00;;;;;;5052301;28;20048;-46
2023/05/21 05:27:46;;;;;;;7.55;1.42;;;20.40;1.00;;;;;;5052061;28;20140;-46
2023/05/21 05:30:13;;;;;;;3.25;0.80;;;20.40;1.00;;;;;;5051717;28;20131;-46
2023/05/21 05:32:39;;;;;;;2.72;1.25;;;20.40;1.00;;;;;;5073510;28;20041;-47
2023/05/21 05:35:07;;;;;;;4.07;1.27;;;20.50;1.00;;;;;;5055641;28;20099;-46
2023/05/21 05:37:34;;;;;;;4.07;1.10;;;20.50;1.00;;;;;;5053180;28;20037;-46
2023/05/21 05:40:01;;;;;;;4.82;1.10;;;20.40;1.00;;;;;;5058634;28;20396;-46
2023/05/21 05:42:28;;;;;;;4.90;1.20;;;20.50;1.00;;;;;;5051449;28;20045;-48
2023/05/21 05:44:56;;;;;;;4.75;1.30;;;20.50;1.00;;;;;;5056179;28;20029;-58
2023/05/21 05:47:23;;;;;;;7.78;1.73;;;20.50;1.00;;;;;;5055694;28;20043;-46
2023/05/21 05:49:50;;;;;;;8.27;1.52;;;20.50;1.00;;;;;;5052044;28;20041;-46
2023/05/21 05:52:18;;;;;;;2.70;1.40;;;20.50;1.00;;;;;;5052091;28;20178;-48
2023/05/21 05:54:45;;;;;;;18.50;2.00;;;20.50;1.00;;;;;;5051992;28;20043;-46
2023/05/21 05:57:12;;;;;;;3.75;1.02;;;20.50;1.00;;;;;;5051855;28;20408;-46
2023/05/21 05:59:39;;;;;;;3.15;1.33;;;20.50;1.00;;;;;;5051904;28;20717;-46
2023/05/21 06:02:06;;;;;;;8.02;1.75;;;20.50;1.00;;;;;;5050079;28;20052;-48
2023/05/21 06:04:33;;;;;;;11.88;2.28;;;20.50;1.00;;;;;;5049166;28;20461;-47
2023/05/21 06:07:00;;;;;;;4.55;1.60;;;20.50;1.00;;;;;;5051573;28;20551;-47
2023/05/21 06:09:27;;;;;;;2.90;1.50;;;20.60;1.00;;;;;;5051844;28;20399;-48
2023/05/21 06:11:54;;;;;;;2.15;1.40;;;20.60;1.00;;;;;;5051780;28;20048;-47
2023/05/21 06:14:21;;;;;;;10.57;1.60;;;20.60;1.00;;;;;;5051334;28;20064;-47
2023/05/21 06:16:48;;;;;;;6.63;1.05;;;20.60;1.00;;;;;;5051401;28;20124;-48
2023/05/21 06:19:15;;;;;;;4.70;0.95;;;20.60;1.00;;;;;;5051586;28;20076;-48
2023/05/21 06:21:42;;;;;;;5.00;1.50;;;20.60;1.00;;;;;;5058354;28;20504;-48
2023/05/21 06:24:09;;;;;;;4.47;1.35;;;20.60;1.00;;;;;;5051164;28;20094;-44
2023/05/21 06:26:37;;;;;;;4.32;0.98;;;20.60;1.00;;;;;;5051368;28;20037;-46
2023/05/21 06:29:04;;;;;;;2.83;0.93;;;20.70;1.00;;;;;;5034824;28;20114;-45
2023/05/21 06:31:31;;;;;;;2.95;0.80;;;20.70;1.00;;;;;;5051327;28;20103;-46
2023/05/21 06:33:59;;;;;;;4.80;1.20;;;20.70;1.00;;;;;;5051290;28;20065;-46
2023/05/21 06:36:28;;;;;;;3.90;0.93;;;20.70;1.00;;;;;;5051099;28;20045;-45
2023/05/21 06:38:56;;;;;;;2.90;1.10;;;20.70;1.00;;;;;;5050844;28;20045;-45
2023/05/21 06:41:23;;;;;;;9.20;1.13;;;20.70;1.00;;;;;;5051048;28;20045;-45
2023/05/21 06:43:54;;;;;;;3.33;1.25;;;20.70;1.00;;;;;;5034331;28;20504;-47
2023/05/21 06:46:39;;;;;;;3.22;1.00;;;20.80;1.00;;;;;;5052666;28;20523;-45
2023/05/21 06:49:07;;;;;;;5.22;1.23;;;20.80;1.00;;;;;;5051012;28;20106;-46
2023/05/21 06:51:34;;;;;;;4.38;0.80;;;20.80;1.00;;;;;;5050923;28;20078;-45
2023/05/21 06:54:03;;;;;;;3.00;0.90;;;20.80;1.00;;;;;;5052336;28;20049;-45
2023/05/21 06:56:30;;;;;;;4.20;1.13;;;20.80;1.00;;;;;;5050812;28;20064;-45
2023/05/21 06:58:58;;;;;;;3.55;1.33;;;20.80;1.00;;;;;;5051884;28;20047;-45
2023/05/21 07:01:25;;;;;;;2.35;0.77;;;20.80;1.00;;;;;;5052145;28;20041;-45
2023/05/21 07:03:53;;;;;;;3.72;1.00;;;20.80;1.00;;;;;;5050627;28;20073;-47
2023/05/21 07:06:20;;;;;;;4.25;1.08;;;20.80;1.00;;;;;;5050743;28;20045;-45
2023/05/21 07:08:48;;;;;;;3.13;0.80;;;20.80;1.00;;;;;;5050717;28;20043;-46
2023/05/21 07:11:15;;;;;;;3.88;1.30;;;20.80;1.00;;;;;;5050947;28;20377;-45
2023/05/21 07:13:42;;;;;;;2.70;1.10;;;20.80;1.00;;;;;;5050414;28;20504;-45
2023/05/21 07:16:10;;;;;;;3.75;1.50;;;20.80;1.00;;;;;;5050636;28;20085;-47
2023/05/21 07:18:39;;;;;;;4.53;1.08;;;20.80;1.00;;;;;;5067095;28;20052;-45
2023/05/21 07:21:07;;;;;;;2.33;0.88;;;20.80;1.00;;;;;;5056523;28;20132;-45
2023/05/21 07:23:36;;;;;;;3.58;1.17;;;20.80;1.00;;;;;;5067776;28;20049;-46
2023/05/21 07:26:03;;;;;;;3.17;1.35;;;20.80;1.00;;;;;;5050490;28;20090;-47
2023/05/21 07:28:30;;;;;;;2.45;0.98;;;20.80;1.00;;;;;;5050288;28;20458;-45
2023/05/21 07:30:59;;;;;;;3.67;1.15;;;20.80;1.00;;;;;;5067251;28;20464;-46
2023/05/21 07:33:33;;;;;;;;;;;20.90;1.00;;;;;;5050575;28;20053;-45
2023/05/21 07:36:00;;;;;;;4.43;1.00;;;20.80;1.00;;;;;;5050276;28;19971;-45
2023/05/21 07:38:27;;;;;;;2.92;1.35;;;20.90;1.00;;;;;;5049992;28;20052;-45
2023/05/21 07:40:55;;;;;;;2.90;0.93;;;20.90;1.00;;;;;;5050317;28;20561;-45
2023/05/21 07:43:23;;;;;;;6.32;1.65;;;20.90;1.00;;;;;;5050024;28;20045;-45
2023/05/21 07:45:50;;;;;;;4.68;0.90;;;20.90;1.00;;;;;;5050298;28;20560;-45
2023/05/21 07:48:18;;;;;;;3.67;1.05;;;20.90;1.00;;;;;;5050011;28;20061;-46
2023/05/21 07:50:53;;;;;;;4.63;1.50;;;20.90;1.00;;;;;;5050193;28;20492;-47
2023/05/21 07:53:23;;;;;;;1.77;1.00;;;20.90;1.00;;;;;;5051390;28;20383;-46
2023/05/21 07:55:50;;;;;;;2.20;1.00;;;20.90;1.00;;;;;;5053197;28;20499;-46
2023/05/21 07:58:22;;;;;;;3.10;0.77;;;20.90;1.00;;;;;;5054128;28;20575;-46
2023/05/21 08:00:50;;;;;;;2.72;0.90;;;20.90;1.00;;;;;;5054219;28;20047;-46
2023/05/21 08:03:17;;;;;;;4.15;1.38;;;20.90;1.00;;;;;;5054017;28;20130;-46
2023/05/21 08:05:49;;;;;;;2.28;0.85;;;20.90;1.00;;;;;;5062836;28;20056;-47
2023/05/21 08:08:18;;;;;;;4.30;1.30;;;20.90;1.00;;;;;;5054007;28;20060;-47
2023/05/21 08:10:46;;;;;;;1.98;1.35;;;20.90;1.00;;;;;;5054011;28;20119;-46
2023/05/21 08:13:15;;;;;;;3.92;1.10;;;20.90;1.00;;;;;;5053944;28;20037;-47
2023/05/21 08:15:43;;;;;;;4.50;1.15;;;20.90;1.00;;;;;;5054977;28;20124;-47
2023/05/21 08:18:11;;;;;;;2.13;0.90;;;20.90;1.00;;;;;;5053782;28;20045;-46
2023/05/21 08:20:40;;;;;;;1.90;1.02;;;20.90;1.00;;;;;;5055978;28;20057;-59
2023/05/21 08:23:08;;;;;;;7.97;1.38;;;21.00;1.00;;;;;;5075589;28;20488;-46
2023/05/21 08:25:40;;;;;;;2.63;1.30;;;20.90;1.00;;;;;;5053616;28;20080;-46
2023/05/21 08:28:08;;;;;;;4.28;1.55;;;21.00;1.00;;;;;;5053887;28;20068;-46
2023/05/21 08:30:35;;;;;;;4.28;1.40;;;21.00;1.00;;;;;;5053581;28;20127;-46
2023/05/21 08:33:02;;;;;;;2.55;1.05;;;20.90;1.00;;;;;;5055032;28;20116;-47
2023/05/21 08:35:32;;;;;;;4.38;1.20;;;20.90;1.00;;;;;;5053498;28;20045;-48
2023/05/21 08:38:15;;;;;;;3.70;0.93;;;21.00;1.00;;;;;;5053436;28;20040;-47
2023/05/21 08:41:06;;;;;;;4.75;1.20;;;20.90;1.00;;;;;;5050706;28;20056;-46
2023/05/21 08:43:35;;;;;;;2.25;1.27;;;21.00;1.00;;;;;;5053394;28;20381;-46
2023/05/21 08:46:03;;;;;;;3.38;1.15;;;20.90;1.00;;;;;;5053339;28;20036;-46
2023/05/21 08:48:35;;;;;;;2.83;0.93;;;21.00;1.00;;;;;;5053296;28;20037;-46
2023/05/21 08:51:03;;;;;;;2.22;1.10;;;21.00;1.00;;;;;;5053516;28;20033;-46
2023/05/21 08:53:33;;;;;;;3.35;1.13;;;21.00;1.00;;;;;;5054136;28;20040;-46
2023/05/21 08:56:02;;;;;;;1.73;0.85;;;21.00;1.00;;;;;;5053247;28;20045;-46
2023/05/21 08:58:44;;;;;;;3.85;1.23;;;21.00;1.00;;;;;;5053272;28;20041;-46
2023/05/21 09:01:11;;;;;;;3.28;1.25;;;21.00;1.00;;;;;;5053246;28;20091;-46
2023/05/21 09:03:42;;;;;;;2.28;1.17;;;21.00;1.00;;;;;;5052875;28;20045;-46
2023/05/21 09:06:12;;;;;;;1.77;0.70;;;21.00;1.00;;;;;;5053677;28;20033;-46
2023/05/21 09:08:46;;;;;;;2.55;1.10;;;21.00;1.00;;;;;;5054451;28;20557;-46
2023/05/21 09:11:28;;;;;;;5.68;1.23;;;21.00;1.00;;;;;;5052927;28;20415;-46
2023/05/21 09:13:59;;;;;;;4.47;1.20;;;21.00;1.00;;;;;;5052862;28;20099;-46
2023/05/21 09:16:41;;;;;;;2.90;1.70;;;21.00;1.00;;;;;;5052940;28;20049;-46
2023/05/21 09:19:08;;;;;;;2.63;0.88;;;21.00;1.00;;;;;;5052798;28;20068;-46
2023/05/21 09:21:35;;;;;;;5.38;1.60;;;21.00;1.00;;;;;;5052944;28;20037;-46
2023/05/21 09:24:13;;;;;;;6.18;1.80;;;21.00;1.00;;;;;;5062733;23;20061;-46
2023/05/21 09:26:44;;;;;;;2.72;1.00;;;21.00;1.00;;;;;;5012821;28;20053;-47
2023/05/21 09:29:12;;;;;;;2.80;1.67;;;21.00;1.00;;;;;;5013103;28;20454;-46
2023/05/21 09:31:43;;;;;;;3.33;1.17;;;21.10;1.00;;;;;;5029185;28;20070;-48
2023/05/21 09:34:12;;;;;;;2.38;1.17;;;21.10;1.00;;;;;;5012879;28;20128;-48
2023/05/21 09:36:42;;;;;;;5.43;1.30;;;21.00;1.00;;;;;;5012694;28;20042;-46
2023/05/21 09:39:14;;;;;;;1.88;1.15;;;21.00;1.00;;;;;;5012994;28;20046;-47
2023/05/21 09:41:42;;;;;;;5.10;0.95;;;21.00;1.00;;;;;;5012685;28;20532;-48
2023/05/21 09:44:09;;;;;;;3.60;1.33;;;21.00;1.00;;;;;;5013856;28;20544;-46
2023/05/21 09:46:38;;;;;;;2.90;1.23;;;21.10;1.00;;;;;;5012522;28;20045;-46
2023/05/21 09:49:06;;;;;;;2.40;1.38;;;21.00;1.00;;;;;;5012557;28;20042;-46
2023/05/21 09:51:37;;;;;;;1.80;0.95;;;21.00;1.00;;;;;;5012569;28;20092;-46
2023/05/21 09:54:03;;;;;;;4.40;1.20;;;21.00;1.00;;;;;;5013641;28;20046;-59
2023/05/21 09:56:30;;;;;;;3.75;1.50;;;21.00;1.00;;;;;;5013720;28;20111;-46
2023/05/21 09:59:00;;;;;;;3.00;1.60;;;21.00;1.00;;;;;;5013433;28;20042;-46
2023/05/21 10:01:30;;;;;;;3.60;1.15;;;21.00;1.00;;;;;;5013571;28;20048;-47
2023/05/21 10:03:58;;;;;;;2.60;1.08;;;21.00;1.00;;;;;;5013464;28;20489;-46
2023/05/21 10:06:27;;;;;;;3.08;1.10;;;21.10;1.00;;;;;;5013628;28;20033;-49
2023/05/21 10:08:56;;;;;;;2.17;1.13;;;21.10;1.00;;;;;;5013173;28;20046;-47
2023/05/21 10:11:26;;;;;;;3.30;1.48;;;21.00;1.00;;;;;;5021748;28;20064;-47
2023/05/21 10:14:19;;;;;;;3.60;1.38;;;21.00;1.00;;;;;;5004093;28;20056;-46
2023/05/21 10:16:46;;;;;;;4.05;1.38;;;21.10;1.00;;;;;;5020234;28;20228;-47
2023/05/21 10:19:14;;;;;;;6.38;1.52;;;21.10;1.00;;;;;;5012051;28;20053;-47
2023/05/21 10:21:42;;;;;;;2.47;1.30;;;21.10;1.00;;;;;;5013180;28;20046;-46
2023/05/21 10:24:10;;;;;;;4.53;1.40;;;21.10;1.00;;;;;;5012768;28;20072;-46
2023/05/21 10:26:38;;;;;;;3.13;1.58;;;21.10;1.00;;;;;;5013038;28;20042;-47
2023/05/21 10:29:06;;;;;;;3.00;1.00;;;21.10;1.00;;;;;;5012719;28;20109;-48
2023/05/21 10:31:34;;;;;;;3.42;1.45;;;21.10;1.00;;;;;;5013013;28;20037;-46
2023/05/21 10:34:05;;;;;;;7.30;1.60;;;21.10;1.00;;;;;;5012912;28;20038;-46
2023/05/21 10:36:33;;;;;;;2.25;1.30;;;21.10;1.00;;;;;;5012732;28;20300;-47
2023/05/21 10:39:01;;;;;;;3.22;1.23;;;21.10;1.00;;;;;;5012870;28;20065;-46
2023/05/21 10:41:36;;;;;;;2.25;1.13;;;21.10;1.00;;;;;;5012728;28;20306;-46
2023/05/21 10:44:15;;;;;;;3.95;1.10;;;21.10;1.00;;;;;;5013141;28;20532;-47
2023/05/21 10:47:01;;;;;;;3.05;1.10;;;21.10;1.00;;;;;;5012689;28;20042;-49
2023/05/21 10:49:33;;;;;;;1.67;1.20;;;21.10;1.00;;;;;;5012770;28;20038;-46
2023/05/21 10:52:24;;;;;;;2.58;1.13;;;21.10;1.00;;;;;;5012733;28;20049;-47
2023/05/21 10:55:15;;;;;;;3.47;1.35;;;21.10;1.00;;;;;;5012500;28;20045;-46
2023/05/21 10:58:12;;;;;;;3.50;1.35;;;21.10;1.00;;;;;;5020753;28;20054;-46
2023/05/21 11:00:41;;;;;;;3.28;1.48;;;21.10;1.00;;;;;;5020847;28;20052;-47
2023/05/21 11:03:11;;;;;;;2.90;1.40;;;21.10;1.00;;;;;;5012587;28;20050;-47
2023/05/21 11:05:53;;;;;;;3.80;1.80;;;21.10;1.00;;;;;;5012161;28;20048;-46
2023/05/21 11:08:32;;;;;;;1.98;1.15;;;21.10;1.00;;;;;;5011337;28;20100;-46
2023/05/21 11:10:59;;;;;;;3.92;2.15;;;21.10;1.00;;;;;;5012621;28;20109;-46
2023/05/21 11:13:30;;;;;;;2.78;1.48;;;21.10;1.00;;;;;;5012084;28;20433;-47
2023/05/21 11:15:56;;;;;;;5.30;1.88;;;21.20;1.00;;;;;;5005048;28;20042;-49
2023/05/21 11:18:38;;;;;;;2.20;0.98;;;21.20;1.00;;;;;;5012107;28;20034;-49
2023/05/21 11:21:13;;;;;;;5.55;1.98;;;21.10;1.00;;;;;;5012428;28;20046;-46
2023/05/21 11:24:00;;;;;;;2.92;1.50;;;21.10;1.00;;;;;;5020090;28;20068;-48
2023/05/21 11:26:49;;;;;;;2.63;1.60;;;21.20;1.00;;;;;;5012085;28;20042;-48
2023/05/21 11:29:16;;;;;;;3.45;1.58;;;21.20;1.00;;;;;;5011967;28;20030;-46
2023/05/21 11:32:00;;;;;;;1.85;0.90;;;21.10;1.00;;;;;;5011866;28;20092;-46
2023/05/21 11:34:44;;;;;;;3.28;1.40;;;21.20;1.00;;;;;;5011902;28;20125;-48
2023/05/21 11:37:19;;;;;;;2.45;1.27;;;21.20;1.00;;;;;;5005975;28;20125;-46
2023/05/21 11:39:47;;;;;;;3.17;1.60;;;21.20;1.00;;;;;;5014149;28;20045;-46
2023/05/21 11:42:32;;;;;;;4.25;1.40;;;21.20;1.00;;;;;;5017505;28;20129;-46
2023/05/21 11:45:01;;;;;;;3.88;1.25;;;21.20;1.00;;;;;;5011753;28;20109;-46
2023/05/21 11:47:28;;;;;;;3.30;1.15;;;21.20;1.00;;;;;;5011712;28;20049;-46
2023/05/21 11:49:58;;;;;;;2.47;1.27;;;21.20;1.00;;;;;;5010579;28;20073;-46
2023/05/21 11:52:27;;;;;;;3.80;1.38;;;21.20;1.00;;;;;;5011872;28;20034;-47
2023/05/21 11:54:55;;;;;;;3.08;1.50;;;21.20;1.00;;;;;;5011660;28;20112;-47
2023/05/21 11:57:30;;;;;;;2.90;1.35;;;21.20;1.00;;;;;;5012140;28;20057;-46
2023/05/21 12:00:09;;;;;;;8.02;1.85;;;21.20;1.00;;;;;;5003975;28;20038;-48
2023/05/21 12:02:50;;;;;;;3.13;1.70;;;21.20;1.00;;;;;;5010598;28;20046;-46
2023/05/21 12:05:17;;;;;;;2.65;1.40;;;21.20;1.00;;;;;;5011236;28;20034;-46
2023/05/21 12:07:48;;;;;;;4.78;1.55;;;21.20;1.00;;;;;;5011566;28;20041;-46
2023/05/21 12:10:19;;;;;;;4.10;1.55;;;21.20;1.00;;;;;;5011797;28;20034;-46
2023/05/21 12:12:46;;;;;;;4.75;2.13;;;21.20;1.00;;;;;;5019772;28;20042;-49
2023/05/21 12:15:23;;;;;;;3.08;1.50;;;21.30;1.00;;;;;;5011462;28;20042;-47
2023/05/21 12:17:51;;;;;;;2.00;1.20;;;21.20;1.00;;;;;;5011598;28;20042;-50
2023/05/21 12:20:19;;;;;;;2.42;1.48;;;21.20;1.00;;;;;;5011641;28;20080;-49
2023/05/21 12:22:48;;;;;;;2.63;1.48;;;21.30;1.00;;;;;;5011616;28;20050;-48
2023/05/21 12:25:22;;;;;;;6.50;1.75;;;21.30;1.00;;;;;;5011202;28;20038;-46
2023/05/21 12:27:56;;;;;;;6.20;1.65;;;21.30;1.00;;;;;;5011503;28;20400;-47
2023/05/21 12:30:24;;;;;;;3.78;1.50;;;21.30;1.00;;;;;;5011633;28;20029;-48
2023/05/21 12:32:51;;;;;;;6.43;1.80;;;21.30;1.00;;;;;;5013318;28;20141;-51
2023/05/21 12:35:22;;;;;;;3.90;1.30;;;21.30;1.00;;;;;;5011253;28;20033;-49
2023/05/21 12:37:50;;;;;;;2.80;1.70;;;21.30;1.00;;;;;;5011256;28;20046;-47
2023/05/21 12:40:18;;;;;;;2.10;1.33;;;21.30;1.00;;;;;;5011553;28;20042;-46
2023/05/21 12:42:45;;;;;;;5.07;1.65;;;21.30;1.00;;;;;;5014038;28;20132;-47
2023/05/21 12:45:13;;;;;;;3.22;1.65;;;21.30;1.00;;;;;;5014927;28;20038;-50
2023/05/21 12:47:40;;;;;;;4.20;1.70;;;21.30;1.00;;;;;;5015380;28;20444;-47
2023/05/21 12:50:10;;;;;;;5.45;1.42;;;21.30;1.00;;;;;;5014913;28;20046;-46
2023/05/21 12:52:39;;;;;;;2.83;1.45;;;21.30;1.00;;;;;;5015037;28;20073;-47
2023/05/21 12:55:09;;;;;;;3.58;1.42;;;21.30;1.00;;;;;;5014933;28;20088;-46
2023/05/21 12:57:37;;;;;;;2.67;1.38;;;21.30;1.00;;;;;;5014744;28;20042;-48
2023/05/21 13:00:06;;;;;;;3.72;1.60;;;21.30;1.00;;;;;;5014763;28;20061;-60
2023/05/21 13:02:41;;;;;;;3.72;1.52;;;21.30;1.00;;;;;;5009547;28;20049;-46
2023/05/21 13:05:10;;;;;;;3.88;1.20;;;21.30;1.00;;;;;;5014721;28;20409;-46
2023/05/21 13:07:38;;;;;;;3.92;1.98;;;21.40;1.00;;;;;;5014474;28;20037;-49
2023/05/21 13:10:06;;;;;;;2.53;1.17;;;21.30;1.00;;;;;;5014572;28;20042;-48